sensor_id;sensor_type;location;lat;lon;timestamp;temperature;humidity
48007;DHT22;33771;48.180;11.400;2023-03-01T00:01:39;0.90;99.90
48007;DHT22;33771;48.180;11.400;2023-03-01T00:04:05;0.90;99.90
48007;DHT22;33771;48.180;11.400;2023-03-01T00:06:30;1.00;99.90
48007;DHT22;33771;48.180;11.400;2023-03-01T00:08:56;0.90;99.90
48007;DHT22;33771;48.180;11.400;2023-03-01T00:11:24;0.90;99.90
48007;DHT22;33771;48.180;11.400;2023-03-01T00:13:53;0.90;99.90
48007;DHT22;33771;48.180;11.400;2023-03-01T00:16:23;0.90;99.90
48007;DHT22;33771;48.180;11.400;2023-03-01T00:18:49;0.90;99.90
48007;DHT22;33771;48.180;11.400;2023-03-01T00:21:16;0.90;99.90
48007;DHT22;33771;48.180;11.400;2023-03-01T00:23:41;0.90;99.90
48007;DHT22;33771;48.180;11.400;2023-03-01T00:26:10;0.90;99.90
48007;DHT22;33771;48.180;11.400;2023-03-01T00:28:36;0.90;99.90
48007;DHT22;33771;48.180;11.400;2023-03-01T00:31:04;0.90;99.90
48007;DHT22;33771;48.180;11.400;2023-03-01T00:33:30;0.90;99.90
48007;DHT22;33771;48.180;11.400;2023-03-01T00:35:58;0.90;99.90
48007;DHT22;33771;48.180;11.400;2023-03-01T00:38:24;0.90;99.90
48007;DHT22;33771;48.180;11.400;2023-03-01T00:40:49;0.90;99.90
48007;DHT22;33771;48.180;11.400;2023-03-01T00:43:15;0.80;99.90
48007;DHT22;33771;48.180;11.400;2023-03-01T00:45:40;0.80;99.90
48007;DHT22;33771;48.180;11.400;2023-03-01T00:48:06;0.90;99.90
48007;DHT22;33771;48.180;11.400;2023-03-01T00:50:31;0.90;99.90
48007;DHT22;33771;48.180;11.400;2023-03-01T00:52:57;0.90;99.90
48007;DHT22;33771;48.180;11.400;2023-03-01T00:55:23;0.90;99.90
48007;DHT22;33771;48.180;11.400;2023-03-01T00:57:49;0.90;99.90
48007;DHT22;33771;48.180;11.400;2023-03-01T01:00:15;0.90;99.90
48007;DHT22;33771;48.180;11.400;2023-03-01T01:02:40;0.90;99.90
48007;DHT22;33771;48.180;11.400;2023-03-01T01:05:06;0.90;99.90
48007;DHT22;33771;48.180;11.400;2023-03-01T01:07:32;0.80;99.90
48007;DHT22;33771;48.180;11.400;2023-03-01T01:09:58;0.80;99.90
48007;DHT22;33771;48.180;11.400;2023-03-01T01:12:23;0.80;99.90
48007;DHT22;33771;48.180;11.400;2023-03-01T01:14:49;0.80;99.90
48007;DHT22;33771;48.180;11.400;2023-03-01T01:17:14;0.80;99.90
48007;DHT22;33771;48.180;11.400;2023-03-01T01:19:40;0.80;99.90
48007;DHT22;33771;48.180;11.400;2023-03-01T01:22:05;0.80;99.90
48007;DHT22;33771;48.180;11.400;2023-03-01T01:24:31;0.80;99.90
48007;DHT22;33771;48.180;11.400;2023-03-01T01:26:57;0.80;99.90
48007;DHT22;33771;48.180;11.400;2023-03-01T01:29:22;0.80;99.90
48007;DHT22;33771;48.180;11.400;2023-03-01T01:31:48;0.80;99.90
48007;DHT22;33771;48.180;11.400;2023-03-01T01:34:19;0.80;99.90
48007;DHT22;33771;48.180;11.400;2023-03-01T01:36:48;0.80;99.90
48007;DHT22;33771;48.180;11.400;2023-03-01T01:39:15;0.80;99.90
48007;DHT22;33771;48.180;11.400;2023-03-01T01:41:41;0.80;99.90
48007;DHT22;33771;48.180;11.400;2023-03-01T01:46:47;0.80;99.90
48007;DHT22;33771;48.180;11.400;2023-03-01T01:49:33;0.80;99.90
48007;DHT22;33771;48.180;11.400;2023-03-01T01:52:13;0.80;99.90
48007;DHT22;33771;48.180;11.400;2023-03-01T01:57:22;0.80;99.90
48007;DHT22;33771;48.180;11.400;2023-03-01T01:59:52;0.80;99.90
48007;DHT22;33771;48.180;11.400;2023-03-01T02:02:20;0.80;99.90
48007;DHT22;33771;48.180;11.400;2023-03-01T02:04:48;0.80;99.90
48007;DHT22;33771;48.180;11.400;2023-03-01T02:07:17;0.80;99.90
48007;DHT22;33771;48.180;11.400;2023-03-01T02:09:47;0.80;99.90
48007;DHT22;33771;48.180;11.400;2023-03-01T02:12:14;0.80;99.90
48007;DHT22;33771;48.180;11.400;2023-03-01T02:14:42;0.70;99.90
48007;DHT22;33771;48.180;11.400;2023-03-01T02:17:08;0.80;99.90
48007;DHT22;33771;48.180;11.400;2023-03-01T02:22:31;0.70;99.90
48007;DHT22;33771;48.180;11.400;2023-03-01T02:30:42;0.70;99.90
48007;DHT22;33771;48.180;11.400;2023-03-01T02:33:28;0.70;99.90
48007;DHT22;33771;48.180;11.400;2023-03-01T02:36:00;0.70;99.90
48007;DHT22;33771;48.180;11.400;2023-03-01T02:38:26;0.70;99.90
48007;DHT22;33771;48.180;11.400;2023-03-01T02:40:54;0.70;99.90
48007;DHT22;33771;48.180;11.400;2023-03-01T02:43:26;0.70;99.90
48007;DHT22;33771;48.180;11.400;2023-03-01T02:45:58;0.70;99.90
48007;DHT22;33771;48.180;11.400;2023-03-01T02:48:24;0.80;99.90
48007;DHT22;33771;48.180;11.400;2023-03-01T02:50:57;0.80;99.90
48007;DHT22;33771;48.180;11.400;2023-03-01T02:56:01;0.70;99.90
48007;DHT22;33771;48.180;11.400;2023-03-01T02:58:27;0.70;99.90
48007;DHT22;33771;48.180;11.400;2023-03-01T03:00:52;0.60;99.90
48007;DHT22;33771;48.180;11.400;2023-03-01T03:03:20;0.70;99.90
48007;DHT22;33771;48.180;11.400;2023-03-01T03:05:47;0.60;99.90
48007;DHT22;33771;48.180;11.400;2023-03-01T03:08:13;0.60;99.90
48007;DHT22;33771;48.180;11.400;2023-03-01T03:10:41;0.60;99.90
48007;DHT22;33771;48.180;11.400;2023-03-01T03:13:13;0.60;99.90
48007;DHT22;33771;48.180;11.400;2023-03-01T03:15:41;0.70;99.90
48007;DHT22;33771;48.180;11.400;2023-03-01T03:18:09;0.60;99.90
48007;DHT22;33771;48.180;11.400;2023-03-01T03:20:37;0.60;99.90
48007;DHT22;33771;48.180;11.400;2023-03-01T03:23:05;0.50;99.90
48007;DHT22;33771;48.180;11.400;2023-03-01T03:25:30;0.50;99.90
48007;DHT22;33771;48.180;11.400;2023-03-01T03:27:57;0.60;99.90
48007;DHT22;33771;48.180;11.400;2023-03-01T03:30:25;0.50;99.90
48007;DHT22;33771;48.180;11.400;2023-03-01T03:32:51;0.60;99.90
48007;DHT22;33771;48.180;11.400;2023-03-01T03:35:25;0.60;99.90
48007;DHT22;33771;48.180;11.400;2023-03-01T03:37:52;0.50;99.90
48007;DHT22;33771;48.180;11.400;2023-03-01T03:40:32;0.50;99.90
48007;DHT22;33771;48.180;11.400;2023-03-01T03:42:58;0.50;99.90
48007;DHT22;33771;48.180;11.400;2023-03-01T03:45:24;0.50;99.90
48007;DHT22;33771;48.180;11.400;2023-03-01T03:47:49;0.40;99.90
48007;DHT22;33771;48.180;11.400;2023-03-01T03:50:16;0.50;99.90
48007;DHT22;33771;48.180;11.400;2023-03-01T03:52:42;0.50;99.90
48007;DHT22;33771;48.180;11.400;2023-03-01T03:55:10;0.40;99.90
48007;DHT22;33771;48.180;11.400;2023-03-01T03:57:40;0.40;99.90
48007;DHT22;33771;48.180;11.400;2023-03-01T04:00:09;0.40;99.90
48007;DHT22;33771;48.180;11.400;2023-03-01T04:02:41;0.40;99.90
48007;DHT22;33771;48.180;11.400;2023-03-01T04:05:08;0.50;99.90
48007;DHT22;33771;48.180;11.400;2023-03-01T04:07:35;0.50;99.90
48007;DHT22;33771;48.180;11.400;2023-03-01T04:10:02;0.40;99.90
48007;DHT22;33771;48.180;11.400;2023-03-01T04:12:28;0.40;99.90
48007;DHT22;33771;48.180;11.400;2023-03-01T04:14:54;0.40;99.90
48007;DHT22;33771;48.180;11.400;2023-03-01T04:17:19;0.30;99.90
48007;DHT22;33771;48.180;11.400;2023-03-01T04:19:45;0.40;99.90
48007;DHT22;33771;48.180;11.400;2023-03-01T04:22:14;0.30;99.90
48007;DHT22;33771;48.180;11.400;2023-03-01T04:24:43;0.30;99.90
48007;DHT22;33771;48.180;11.400;2023-03-01T04:27:08;0.30;99.90
48007;DHT22;33771;48.180;11.400;2023-03-01T04:29:34;0.20;99.90
48007;DHT22;33771;48.180;11.400;2023-03-01T04:32:00;0.20;99.90
48007;DHT22;33771;48.180;11.400;2023-03-01T04:34:25;0.20;99.90
48007;DHT22;33771;48.180;11.400;2023-03-01T04:36:52;0.20;99.90
48007;DHT22;33771;48.180;11.400;2023-03-01T04:39:18;0.20;99.90
48007;DHT22;33771;48.180;11.400;2023-03-01T04:41:43;0.20;99.90
48007;DHT22;33771;48.180;11.400;2023-03-01T04:44:09;0.10;99.90
48007;DHT22;33771;48.180;11.400;2023-03-01T04:46:36;0.10;99.90
48007;DHT22;33771;48.180;11.400;2023-03-01T04:49:02;0.10;99.90
48007;DHT22;33771;48.180;11.400;2023-03-01T04:51:28;0.10;99.90
48007;DHT22;33771;48.180;11.400;2023-03-01T04:53:54;0.10;99.90
48007;DHT22;33771;48.180;11.400;2023-03-01T04:56:20;0.10;99.90
48007;DHT22;33771;48.180;11.400;2023-03-01T04:58:48;0.00;99.90
48007;DHT22;33771;48.180;11.400;2023-03-01T05:01:16;0.00;99.90
48007;DHT22;33771;48.180;11.400;2023-03-01T05:03:43;0.00;99.90
48007;DHT22;33771;48.180;11.400;2023-03-01T05:06:10;0.00;99.90
48007;DHT22;33771;48.180;11.400;2023-03-01T05:08:37;0.00;99.90
48007;DHT22;33771;48.180;11.400;2023-03-01T05:11:02;-0.10;99.90
48007;DHT22;33771;48.180;11.400;2023-03-01T05:13:28;-0.10;99.90
48007;DHT22;33771;48.180;11.400;2023-03-01T05:15:56;-0.10;99.90
48007;DHT22;33771;48.180;11.400;2023-03-01T05:18:23;-0.20;99.90
48007;DHT22;33771;48.180;11.400;2023-03-01T05:20:51;-0.30;99.90
48007;DHT22;33771;48.180;11.400;2023-03-01T05:23:17;-0.30;99.90
48007;DHT22;33771;48.180;11.400;2023-03-01T05:25:43;-0.30;99.90
48007;DHT22;33771;48.180;11.400;2023-03-01T05:28:13;-0.40;99.90
48007;DHT22;33771;48.180;11.400;2023-03-01T05:30:39;-0.40;99.90
48007;DHT22;33771;48.180;11.400;2023-03-01T05:33:05;-0.40;99.90
48007;DHT22;33771;48.180;11.400;2023-03-01T05:35:35;-0.40;99.90
48007;DHT22;33771;48.180;11.400;2023-03-01T05:38:01;-0.40;99.90
48007;DHT22;33771;48.180;11.400;2023-03-01T05:40:27;-0.40;99.90
48007;DHT22;33771;48.180;11.400;2023-03-01T05:42:56;-0.40;99.90
48007;DHT22;33771;48.180;11.400;2023-03-01T05:45:24;-0.40;99.90
48007;DHT22;33771;48.180;11.400;2023-03-01T05:47:50;-0.50;99.90
48007;DHT22;33771;48.180;11.400;2023-03-01T05:50:25;-0.50;99.90
48007;DHT22;33771;48.180;11.400;2023-03-01T05:53:02;-0.50;99.90
48007;DHT22;33771;48.180;11.400;2023-03-01T05:55:30;-0.50;99.90
48007;DHT22;33771;48.180;11.400;2023-03-01T05:57:59;-0.60;99.90
48007;DHT22;33771;48.180;11.400;2023-03-01T06:00:25;-0.60;99.90
48007;DHT22;33771;48.180;11.400;2023-03-01T06:02:50;-0.60;99.90
48007;DHT22;33771;48.180;11.400;2023-03-01T06:05:19;-0.60;99.90
48007;DHT22;33771;48.180;11.400;2023-03-01T06:07:47;-0.60;99.90
48007;DHT22;33771;48.180;11.400;2023-03-01T06:10:14;-0.60;99.90
48007;DHT22;33771;48.180;11.400;2023-03-01T06:12:40;-0.60;99.90
48007;DHT22;33771;48.180;11.400;2023-03-01T06:15:07;-0.40;99.90
48007;DHT22;33771;48.180;11.400;2023-03-01T06:17:36;-0.50;99.90
48007;DHT22;33771;48.180;11.400;2023-03-01T06:20:04;-0.60;99.90
48007;DHT22;33771;48.180;11.400;2023-03-01T06:22:30;-0.50;99.90
48007;DHT22;33771;48.180;11.400;2023-03-01T06:24:56;-0.50;99.90
48007;DHT22;33771;48.180;11.400;2023-03-01T06:27:21;-0.50;99.90
48007;DHT22;33771;48.180;11.400;2023-03-01T06:29:47;-0.50;99.90
48007;DHT22;33771;48.180;11.400;2023-03-01T06:32:12;-0.50;99.90
48007;DHT22;33771;48.180;11.400;2023-03-01T06:34:38;-0.40;99.90
48007;DHT22;33771;48.180;11.400;2023-03-01T06:37:07;-0.40;99.90
48007;DHT22;33771;48.180;11.400;2023-03-01T06:39:33;-0.50;99.90
48007;DHT22;33771;48.180;11.400;2023-03-01T06:41:59;-0.50;99.90
48007;DHT22;33771;48.180;11.400;2023-03-01T06:44:24;-0.50;99.90
48007;DHT22;33771;48.180;11.400;2023-03-01T06:46:50;-0.50;99.90
48007;DHT22;33771;48.180;11.400;2023-03-01T06:49:15;-0.50;99.90
48007;DHT22;33771;48.180;11.400;2023-03-01T06:51:43;-0.40;99.90
48007;DHT22;33771;48.180;11.400;2023-03-01T06:54:09;-0.50;99.90
48007;DHT22;33771;48.180;11.400;2023-03-01T06:56:35;-0.50;99.90
48007;DHT22;33771;48.180;11.400;2023-03-01T06:59:01;-0.50;99.90
48007;DHT22;33771;48.180;11.400;2023-03-01T07:01:28;-0.40;99.90
48007;DHT22;33771;48.180;11.400;2023-03-01T07:03:54;-0.40;99.90
48007;DHT22;33771;48.180;11.400;2023-03-01T07:06:20;-0.40;99.90
48007;DHT22;33771;48.180;11.400;2023-03-01T07:08:46;-0.40;99.90
48007;DHT22;33771;48.180;11.400;2023-03-01T07:11:12;-0.30;99.90
48007;DHT22;33771;48.180;11.400;2023-03-01T07:13:38;-0.30;99.90
48007;DHT22;33771;48.180;11.400;2023-03-01T07:16:03;-0.30;99.90
48007;DHT22;33771;48.180;11.400;2023-03-01T07:18:29;-0.30;99.90
48007;DHT22;33771;48.180;11.400;2023-03-01T07:20:55;-0.20;99.90
48007;DHT22;33771;48.180;11.400;2023-03-01T07:23:20;-0.30;99.90
48007;DHT22;33771;48.180;11.400;2023-03-01T07:25:54;-0.30;99.90
48007;DHT22;33771;48.180;11.400;2023-03-01T07:28:22;-0.30;99.90
48007;DHT22;33771;48.180;11.400;2023-03-01T07:30:48;-0.20;99.90
48007;DHT22;33771;48.180;11.400;2023-03-01T07:33:13;-0.30;99.90
48007;DHT22;33771;48.180;11.400;2023-03-01T07:35:39;-0.20;99.90
48007;DHT22;33771;48.180;11.400;2023-03-01T07:38:04;-0.20;99.90
48007;DHT22;33771;48.180;11.400;2023-03-01T07:40:33;-0.30;99.90
48007;DHT22;33771;48.180;11.400;2023-03-01T07:42:59;-0.30;99.90
48007;DHT22;33771;48.180;11.400;2023-03-01T07:45:26;-0.20;99.90
48007;DHT22;33771;48.180;11.400;2023-03-01T07:47:53;-0.20;99.90
48007;DHT22;33771;48.180;11.400;2023-03-01T07:50:19;-0.20;99.90
48007;DHT22;33771;48.180;11.400;2023-03-01T07:52:46;-0.20;99.90
48007;DHT22;33771;48.180;11.400;2023-03-01T07:55:12;-0.10;99.90
48007;DHT22;33771;48.180;11.400;2023-03-01T07:57:38;0.00;99.90
48007;DHT22;33771;48.180;11.400;2023-03-01T08:00:05;0.00;99.90
48007;DHT22;33771;48.180;11.400;2023-03-01T08:02:31;0.00;99.90
48007;DHT22;33771;48.180;11.400;2023-03-01T08:04:56;0.00;99.90
48007;DHT22;33771;48.180;11.400;2023-03-01T08:07:22;0.10;99.90
48007;DHT22;33771;48.180;11.400;2023-03-01T08:09:47;0.10;99.90
48007;DHT22;33771;48.180;11.400;2023-03-01T08:12:13;0.20;99.90
48007;DHT22;33771;48.180;11.400;2023-03-01T08:14:39;0.20;99.90
48007;DHT22;33771;48.180;11.400;2023-03-01T08:17:04;0.30;99.90
48007;DHT22;33771;48.180;11.400;2023-03-01T08:19:30;0.40;99.90
48007;DHT22;33771;48.180;11.400;2023-03-01T08:21:55;0.30;99.90
48007;DHT22;33771;48.180;11.400;2023-03-01T08:24:23;0.40;99.90
48007;DHT22;33771;48.180;11.400;2023-03-01T08:26:49;0.40;99.90
48007;DHT22;33771;48.180;11.400;2023-03-01T08:29:15;0.50;99.90
48007;DHT22;33771;48.180;11.400;2023-03-01T08:31:40;0.50;99.90
48007;DHT22;33771;48.180;11.400;2023-03-01T08:34:11;0.50;99.90
48007;DHT22;33771;48.180;11.400;2023-03-01T08:36:40;0.60;99.90
48007;DHT22;33771;48.180;11.400;2023-03-01T08:39:07;0.60;99.90
48007;DHT22;33771;48.180;11.400;2023-03-01T08:41:33;0.70;99.90
48007;DHT22;33771;48.180;11.400;2023-03-01T08:43:59;0.80;99.90
48007;DHT22;33771;48.180;11.400;2023-03-01T08:46:36;0.80;99.90
48007;DHT22;33771;48.180;11.400;2023-03-01T08:49:07;0.80;99.90
48007;DHT22;33771;48.180;11.400;2023-03-01T08:51:33;0.90;99.90
48007;DHT22;33771;48.180;11.400;2023-03-01T08:54:06;0.90;99.90
48007;DHT22;33771;48.180;11.400;2023-03-01T08:56:32;0.90;99.90
48007;DHT22;33771;48.180;11.400;2023-03-01T08:58:58;1.00;99.90
48007;DHT22;33771;48.180;11.400;2023-03-01T09:01:23;1.00;99.90
48007;DHT22;33771;48.180;11.400;2023-03-01T09:03:49;1.10;99.90
48007;DHT22;33771;48.180;11.400;2023-03-01T09:06:15;1.20;99.90
48007;DHT22;33771;48.180;11.400;2023-03-01T09:08:43;1.20;99.90
48007;DHT22;33771;48.180;11.400;2023-03-01T09:11:11;1.30;99.90
48007;DHT22;33771;48.180;11.400;2023-03-01T09:13:37;1.30;99.90
48007;DHT22;33771;48.180;11.400;2023-03-01T09:16:04;1.30;99.90
48007;DHT22;33771;48.180;11.400;2023-03-01T09:18:30;1.30;99.90
48007;DHT22;33771;48.180;11.400;2023-03-01T09:21:04;1.40;99.90
48007;DHT22;33771;48.180;11.400;2023-03-01T09:23:33;1.40;99.90
48007;DHT22;33771;48.180;11.400;2023-03-01T09:25:59;1.40;99.90
48007;DHT22;33771;48.180;11.400;2023-03-01T09:28:25;1.40;99.90
48007;DHT22;33771;48.180;11.400;2023-03-01T09:30:50;1.40;99.90
48007;DHT22;33771;48.180;11.400;2023-03-01T09:33:16;1.40;99.90
48007;DHT22;33771;48.180;11.400;2023-03-01T09:35:41;1.40;99.90
48007;DHT22;33771;48.180;11.400;2023-03-01T09:38:12;1.40;99.90
48007;DHT22;33771;48.180;11.400;2023-03-01T09:40:42;1.40;99.90
48007;DHT22;33771;48.180;11.400;2023-03-01T09:43:18;1.50;99.90
48007;DHT22;33771;48.180;11.400;2023-03-01T09:45:46;1.50;99.90
48007;DHT22;33771;48.180;11.400;2023-03-01T09:48:18;1.50;99.90
48007;DHT22;33771;48.180;11.400;2023-03-01T09:50:44;1.60;99.90
48007;DHT22;33771;48.180;11.400;2023-03-01T09:53:21;1.70;99.90
48007;DHT22;33771;48.180;11.400;2023-03-01T09:55:59;1.70;99.90
48007;DHT22;33771;48.180;11.400;2023-03-01T10:09:37;2.00;99.90
48007;DHT22;33771;48.180;11.400;2023-03-01T10:12:08;2.10;99.90
48007;DHT22;33771;48.180;11.400;2023-03-01T10:17:36;2.20;99.90
48007;DHT22;33771;48.180;11.400;2023-03-01T10:20:24;2.10;99.90
48007;DHT22;33771;48.180;11.400;2023-03-01T10:22:51;2.10;99.90
48007;DHT22;33771;48.180;11.400;2023-03-01T10:28:12;2.10;99.90
48007;DHT22;33771;48.180;11.400;2023-03-01T10:30:41;2.20;99.90
48007;DHT22;33771;48.180;11.400;2023-03-01T10:33:16;2.10;99.90
48007;DHT22;33771;48.180;11.400;2023-03-01T10:35:42;2.20;99.90
48007;DHT22;33771;48.180;11.400;2023-03-01T10:38:12;2.30;99.90
48007;DHT22;33771;48.180;11.400;2023-03-01T10:41:07;2.50;99.90
48007;DHT22;33771;48.180;11.400;2023-03-01T10:43:56;2.60;99.90
48007;DHT22;33771;48.180;11.400;2023-03-01T10:46:25;2.90;99.90
48007;DHT22;33771;48.180;11.400;2023-03-01T10:49:17;3.20;99.90
48007;DHT22;33771;48.180;11.400;2023-03-01T10:51:45;3.60;99.90
48007;DHT22;33771;48.180;11.400;2023-03-01T10:54:33;3.70;99.90
48007;DHT22;33771;48.180;11.400;2023-03-01T10:57:01;3.80;99.90
48007;DHT22;33771;48.180;11.400;2023-03-01T10:59:38;3.90;99.90
48007;DHT22;33771;48.180;11.400;2023-03-01T11:02:30;4.00;99.90
48007;DHT22;33771;48.180;11.400;2023-03-01T11:05:01;4.00;99.90
48007;DHT22;33771;48.180;11.400;2023-03-01T11:07:28;4.30;99.90
48007;DHT22;33771;48.180;11.400;2023-03-01T11:09:54;4.30;99.90
48007;DHT22;33771;48.180;11.400;2023-03-01T11:12:21;4.50;99.90
48007;DHT22;33771;48.180;11.400;2023-03-01T11:14:52;4.60;99.90
48007;DHT22;33771;48.180;11.400;2023-03-01T11:22:45;4.90;99.90
48007;DHT22;33771;48.180;11.400;2023-03-01T11:25:14;5.00;99.90
48007;DHT22;33771;48.180;11.400;2023-03-01T11:27:44;5.10;99.90
48007;DHT22;33771;48.180;11.400;2023-03-01T11:30:34;5.10;99.90
48007;DHT22;33771;48.180;11.400;2023-03-01T11:35:49;5.30;99.90
48007;DHT22;33771;48.180;11.400;2023-03-01T11:38:22;5.50;99.90
48007;DHT22;33771;48.180;11.400;2023-03-01T11:43:41;5.70;99.90
48007;DHT22;33771;48.180;11.400;2023-03-01T11:51:42;5.60;99.90
48007;DHT22;33771;48.180;11.400;2023-03-01T12:06:33;5.70;99.90
48007;DHT22;33771;48.180;11.400;2023-03-01T12:28:55;6.30;99.90
48007;DHT22;33771;48.180;11.400;2023-03-01T12:34:47;6.20;99.90
48007;DHT22;33771;48.180;11.400;2023-03-01T12:37:33;6.10;99.90
48007;DHT22;33771;48.180;11.400;2023-03-01T12:49:02;6.40;99.90
48007;DHT22;33771;48.180;11.400;2023-03-01T12:51:34;6.20;99.90
48007;DHT22;33771;48.180;11.400;2023-03-01T12:54:14;6.10;99.90
48007;DHT22;33771;48.180;11.400;2023-03-01T12:56:40;6.20;99.90
48007;DHT22;33771;48.180;11.400;2023-03-01T12:59:20;6.40;99.90
48007;DHT22;33771;48.180;11.400;2023-03-01T13:01:59;6.60;99.90
48007;DHT22;33771;48.180;11.400;2023-03-01T13:04:44;6.80;99.90
48007;DHT22;33771;48.180;11.400;2023-03-01T13:07:29;6.70;99.90
48007;DHT22;33771;48.180;11.400;2023-03-01T13:17:56;6.60;99.90
48007;DHT22;33771;48.180;11.400;2023-03-01T13:20:44;6.60;99.90
48007;DHT22;33771;48.180;11.400;2023-03-01T13:28:40;6.90;99.90
48007;DHT22;33771;48.180;11.400;2023-03-01T13:31:09;7.00;99.90
48007;DHT22;33771;48.180;11.400;2023-03-01T13:46:53;7.10;99.90
48007;DHT22;33771;48.180;11.400;2023-03-01T13:49:22;7.20;99.90
48007;DHT22;33771;48.180;11.400;2023-03-01T13:51:50;7.20;99.90
48007;DHT22;33771;48.180;11.400;2023-03-01T13:54:29;7.20;99.90
48007;DHT22;33771;48.180;11.400;2023-03-01T13:56:57;7.20;99.90
48007;DHT22;33771;48.180;11.400;2023-03-01T13:59:23;7.20;99.90
48007;DHT22;33771;48.180;11.400;2023-03-01T14:01:59;7.10;99.90
48007;DHT22;33771;48.180;11.400;2023-03-01T14:04:27;7.10;99.90
48007;DHT22;33771;48.180;11.400;2023-03-01T14:07:13;7.00;99.90
48007;DHT22;33771;48.180;11.400;2023-03-01T14:09:44;6.90;99.90
48007;DHT22;33771;48.180;11.400;2023-03-01T14:12:26;6.80;99.90
48007;DHT22;33771;48.180;11.400;2023-03-01T14:18:10;6.70;99.90
48007;DHT22;33771;48.180;11.400;2023-03-01T14:20:44;6.70;99.90
48007;DHT22;33771;48.180;11.400;2023-03-01T14:23:19;6.60;99.90
48007;DHT22;33771;48.180;11.400;2023-03-01T14:25:51;6.70;99.90
48007;DHT22;33771;48.180;11.400;2023-03-01T14:28:26;6.80;99.90
48007;DHT22;33771;48.180;11.400;2023-03-01T14:30:59;6.70;99.90
48007;DHT22;33771;48.180;11.400;2023-03-01T14:33:33;6.70;99.90
48007;DHT22;33771;48.180;11.400;2023-03-01T14:36:01;6.70;99.90
48007;DHT22;33771;48.180;11.400;2023-03-01T14:38:32;6.80;99.90
48007;DHT22;33771;48.180;11.400;2023-03-01T14:41:03;6.80;99.90
48007;DHT22;33771;48.180;11.400;2023-03-01T14:43:30;6.90;99.90
48007;DHT22;33771;48.180;11.400;2023-03-01T14:45:56;6.90;99.90
48007;DHT22;33771;48.180;11.400;2023-03-01T14:48:22;7.00;99.90
48007;DHT22;33771;48.180;11.400;2023-03-01T14:50:50;7.00;99.90
48007;DHT22;33771;48.180;11.400;2023-03-01T14:53:23;7.00;99.90
48007;DHT22;33771;48.180;11.400;2023-03-01T14:55:53;7.00;99.90
48007;DHT22;33771;48.180;11.400;2023-03-01T14:58:22;6.90;99.90
48007;DHT22;33771;48.180;11.400;2023-03-01T15:00:59;6.80;99.90
48007;DHT22;33771;48.180;11.400;2023-03-01T15:03:38;6.80;99.90
48007;DHT22;33771;48.180;11.400;2023-03-01T15:06:07;6.80;99.90
48007;DHT22;33771;48.180;11.400;2023-03-01T15:08:34;6.70;99.90
48007;DHT22;33771;48.180;11.400;2023-03-01T15:13:33;6.80;99.90
48007;DHT22;33771;48.180;11.400;2023-03-01T15:18:32;6.70;99.90
48007;DHT22;33771;48.180;11.400;2023-03-01T15:21:08;6.60;99.90
48007;DHT22;33771;48.180;11.400;2023-03-01T15:23:34;6.70;99.90
48007;DHT22;33771;48.180;11.400;2023-03-01T15:26:00;6.70;99.90
48007;DHT22;33771;48.180;11.400;2023-03-01T15:28:32;6.60;99.90
48007;DHT22;33771;48.180;11.400;2023-03-01T15:31:20;6.60;99.90
48007;DHT22;33771;48.180;11.400;2023-03-01T15:33:46;6.60;99.90
48007;DHT22;33771;48.180;11.400;2023-03-01T15:39:04;6.60;99.90
48007;DHT22;33771;48.180;11.400;2023-03-01T15:41:57;6.60;99.90
48007;DHT22;33771;48.180;11.400;2023-03-01T15:44:32;6.50;99.90
48007;DHT22;33771;48.180;11.400;2023-03-01T15:46:58;6.50;99.90
48007;DHT22;33771;48.180;11.400;2023-03-01T15:49:43;6.50;99.90
48007;DHT22;33771;48.180;11.400;2023-03-01T15:55:39;6.40;99.90
48007;DHT22;33771;48.180;11.400;2023-03-01T15:58:14;6.40;99.90
48007;DHT22;33771;48.180;11.400;2023-03-01T16:00:41;6.30;99.90
48007;DHT22;33771;48.180;11.400;2023-03-01T16:03:08;6.30;99.90
48007;DHT22;33771;48.180;11.400;2023-03-01T16:05:36;6.30;99.90
48007;DHT22;33771;48.180;11.400;2023-03-01T16:08:02;6.20;99.90
48007;DHT22;33771;48.180;11.400;2023-03-01T16:10:28;6.20;99.90
48007;DHT22;33771;48.180;11.400;2023-03-01T16:12:54;6.10;99.90
48007;DHT22;33771;48.180;11.400;2023-03-01T16:17:48;6.00;99.90
48007;DHT22;33771;48.180;11.400;2023-03-01T16:20:14;5.90;99.90
48007;DHT22;33771;48.180;11.400;2023-03-01T16:22:44;5.90;99.90
48007;DHT22;33771;48.180;11.400;2023-03-01T16:25:15;5.90;99.90
48007;DHT22;33771;48.180;11.400;2023-03-01T16:27:43;5.80;99.90
48007;DHT22;33771;48.180;11.400;2023-03-01T16:30:10;5.80;99.90
48007;DHT22;33771;48.180;11.400;2023-03-01T16:32:40;5.70;99.90
48007;DHT22;33771;48.180;11.400;2023-03-01T16:35:07;5.70;99.90
48007;DHT22;33771;48.180;11.400;2023-03-01T16:37:33;5.60;99.90
48007;DHT22;33771;48.180;11.400;2023-03-01T16:39:59;5.50;99.90
48007;DHT22;33771;48.180;11.400;2023-03-01T16:42:25;5.50;99.90
48007;DHT22;33771;48.180;11.400;2023-03-01T16:44:56;5.40;99.90
48007;DHT22;33771;48.180;11.400;2023-03-01T16:47:22;5.30;99.90
48007;DHT22;33771;48.180;11.400;2023-03-01T16:49:51;5.30;99.90
48007;DHT22;33771;48.180;11.400;2023-03-01T16:52:17;5.20;99.90
48007;DHT22;33771;48.180;11.400;2023-03-01T16:54:43;5.10;99.90
48007;DHT22;33771;48.180;11.400;2023-03-01T16:57:09;5.10;99.90
48007;DHT22;33771;48.180;11.400;2023-03-01T16:59:34;5.00;99.90
48007;DHT22;33771;48.180;11.400;2023-03-01T17:02:00;4.80;99.90
48007;DHT22;33771;48.180;11.400;2023-03-01T17:04:26;4.80;99.90
48007;DHT22;33771;48.180;11.400;2023-03-01T17:06:51;4.60;99.90
48007;DHT22;33771;48.180;11.400;2023-03-01T17:09:17;4.60;99.90
48007;DHT22;33771;48.180;11.400;2023-03-01T17:11:43;4.50;99.90
48007;DHT22;33771;48.180;11.400;2023-03-01T17:14:08;4.40;99.90
48007;DHT22;33771;48.180;11.400;2023-03-01T17:16:34;4.30;99.90
48007;DHT22;33771;48.180;11.400;2023-03-01T17:19:00;4.20;99.90
48007;DHT22;33771;48.180;11.400;2023-03-01T17:21:26;4.10;99.90
48007;DHT22;33771;48.180;11.400;2023-03-01T17:23:55;4.10;99.90
48007;DHT22;33771;48.180;11.400;2023-03-01T17:26:21;4.00;99.90
48007;DHT22;33771;48.180;11.400;2023-03-01T17:28:47;3.90;99.90
48007;DHT22;33771;48.180;11.400;2023-03-01T17:31:17;3.80;99.90
48007;DHT22;33771;48.180;11.400;2023-03-01T17:33:43;3.70;99.90
48007;DHT22;33771;48.180;11.400;2023-03-01T17:36:11;3.60;99.90
48007;DHT22;33771;48.180;11.400;2023-03-01T17:38:37;3.40;99.90
48007;DHT22;33771;48.180;11.400;2023-03-01T17:41:03;3.30;99.90
48007;DHT22;33771;48.180;11.400;2023-03-01T17:43:29;3.20;99.90
48007;DHT22;33771;48.180;11.400;2023-03-01T17:45:55;3.20;99.90
48007;DHT22;33771;48.180;11.400;2023-03-01T17:48:21;3.00;99.90
48007;DHT22;33771;48.180;11.400;2023-03-01T17:50:47;3.00;99.90
48007;DHT22;33771;48.180;11.400;2023-03-01T17:53:12;3.00;99.90
48007;DHT22;33771;48.180;11.400;2023-03-01T17:55:40;2.90;99.90